createdAt,value
2018-12-17T00:00:47.877Z,99804.19
2018-12-17T00:03:53.122Z,99811.59
2018-12-17T00:06:58.364Z,99812.91
2018-12-17T00:10:01.928Z,99809.84
2018-12-17T00:13:08.242Z,99815.48
2018-12-17T00:16:11.472Z,99814.23
2018-12-17T00:19:14.816Z,99811.64
2018-12-17T00:22:18.029Z,99818.16
2018-12-17T00:25:21.653Z,99817.88
2018-12-17T00:28:24.873Z,99825.81
2018-12-17T00:31:28.069Z,99817.22
2018-12-17T00:34:31.277Z,99814.98
2018-12-17T00:37:34.493Z,99812.44
2018-12-17T00:40:38.837Z,99825.09
2018-12-17T00:43:42.055Z,99816.38
2018-12-17T00:46:45.288Z,99819.02
2018-12-17T00:49:48.509Z,99821.65
2018-12-17T00:52:51.724Z,99824.20
2018-12-17T00:55:55.064Z,99827.32
2018-12-17T00:58:58.308Z,99829.07
2018-12-17T01:02:01.520Z,99822.58
2018-12-17T01:05:06.093Z,99821.67
2018-12-17T01:08:09.564Z,99825.14
2018-12-17T01:11:12.797Z,99826.89
2018-12-17T01:14:16.001Z,99822.16
2018-12-17T01:17:19.248Z,99820.84
2018-12-17T01:20:22.481Z,99822.12
2018-12-17T01:23:25.681Z,99819.54
2018-12-17T01:26:28.969Z,99812.56
2018-12-17T01:29:32.169Z,99809.53
2018-12-17T01:32:35.868Z,99807.38
2018-12-17T01:35:40.203Z,99791.67
2018-12-17T01:38:44.162Z,99808.25
2018-12-17T01:41:47.385Z,99806.92
2018-12-17T01:44:50.581Z,99806.50
2018-12-17T01:47:53.812Z,99820.88
2018-12-17T01:50:57.016Z,99820.47
2018-12-17T01:54:00.227Z,99825.66
2018-12-17T01:57:03.477Z,99827.38
2018-12-17T02:00:07.334Z,99831.72
2018-12-17T02:03:10.977Z,99830.87
2018-12-17T02:06:14.198Z,99825.19
2018-12-17T02:09:17.549Z,99825.20
2018-12-17T02:12:20.790Z,99776.77
2018-12-17T02:15:24.019Z,99814.73
2018-12-17T02:18:27.216Z,99819.59
2018-12-17T02:21:30.451Z,99821.27
2018-12-17T02:24:33.828Z,99814.78
2018-12-17T02:27:37.041Z,99814.77
2018-12-17T02:30:40.249Z,99813.04
2018-12-17T02:33:43.517Z,99805.20
2018-12-17T02:36:46.906Z,99811.33
2018-12-17T02:39:50.207Z,99812.19
2018-12-17T02:42:53.435Z,99820.89
2018-12-17T02:45:56.649Z,99822.20
2018-12-17T02:48:59.885Z,99820.46
2018-12-17T02:52:03.113Z,99822.20
2018-12-17T02:55:06.848Z,99826.55
2018-12-17T02:58:10.173Z,99828.71
2018-12-17T03:01:13.396Z,99831.28
2018-12-17T03:04:16.609Z,99832.58
2018-12-17T03:07:19.817Z,99829.53
2018-12-17T03:10:23.047Z,99842.98
2018-12-17T03:13:26.260Z,99840.78
2018-12-17T03:16:30.610Z,99844.72
2018-12-17T03:19:33.840Z,99847.30
2018-12-17T03:22:37.036Z,99849.92
2018-12-17T03:25:40.250Z,99852.09
2018-12-17T03:28:43.476Z,99851.23
2018-12-17T03:31:47.139Z,99854.32
2018-12-17T03:34:50.353Z,99856.11
2018-12-17T03:37:53.577Z,99840.38
2018-12-17T03:40:56.818Z,99852.16
2018-12-17T03:44:00.033Z,99855.17
2018-12-17T03:47:03.314Z,99846.52
2018-12-17T03:50:07.213Z,99852.20
2018-12-17T03:53:10.424Z,99852.20
2018-12-17T03:56:13.632Z,99857.87
2018-12-17T03:59:17.626Z,99854.34
2018-12-17T04:02:20.880Z,99850.42
2018-12-17T04:05:24.127Z,99854.77
2018-12-17T04:08:27.357Z,99853.02
2018-12-17T04:11:30.587Z,99849.05
2018-12-17T04:14:33.806Z,99850.39
2018-12-17T04:17:37.032Z,99842.58
2018-12-17T04:20:40.244Z,99847.79
2018-12-17T04:23:43.456Z,99848.17
2018-12-17T04:26:48.699Z,99848.22
2018-12-17T04:29:51.929Z,99840.81
2018-12-17T04:32:55.264Z,99842.52
2018-12-17T04:35:58.704Z,99848.18
2018-12-17T04:39:01.957Z,99857.38
2018-12-17T04:42:07.230Z,99862.56
2018-12-17T04:45:10.560Z,99868.69
2018-12-17T04:48:13.796Z,99866.50
2018-12-17T04:51:17.149Z,99869.56
2018-12-17T04:54:20.500Z,99870.46
2018-12-17T04:57:23.715Z,99876.16
2018-12-17T05:00:26.970Z,99884.41
2018-12-17T05:03:30.192Z,99885.28
2018-12-17T05:06:33.393Z,99889.20
2018-12-17T05:09:36.636Z,99902.28
2018-12-17T05:12:39.849Z,99899.70
2018-12-17T05:15:43.188Z,99898.81
2018-12-17T05:18:46.405Z,99899.69
2018-12-17T05:21:49.601Z,99895.75
2018-12-17T05:24:52.827Z,99899.19
2018-12-17T05:27:56.132Z,99900.95
2018-12-17T05:30:59.396Z,99906.61
2018-12-17T05:34:02.642Z,99903.57
2018-12-17T05:37:06.013Z,99913.99
2018-12-17T05:40:09.492Z,99916.22
2018-12-17T05:43:12.837Z,99922.33
2018-12-17T05:46:16.080Z,99917.09
2018-12-17T05:49:19.430Z,99914.47
2018-12-17T05:52:22.633Z,99904.05
2018-12-17T05:55:25.861Z,99917.17
2018-12-17T05:58:29.087Z,99919.72
2018-12-17T06:01:32.361Z,99919.72
2018-12-17T06:04:35.588Z,99920.18
2018-12-17T06:07:38.784Z,99927.08
2018-12-17T06:10:42.023Z,99929.76
2018-12-17T06:13:45.215Z,99936.72
2018-12-17T06:16:48.445Z,99941.50
2018-12-17T06:19:51.644Z,99940.70
2018-12-17T06:22:54.853Z,99945.92
2018-12-17T06:25:58.109Z,99942.84
2018-12-17T06:29:01.307Z,99955.55
2018-12-17T06:32:05.553Z,99955.56
2018-12-17T06:35:08.913Z,99958.56
2018-12-17T06:38:12.119Z,99955.98
2018-12-17T06:41:15.341Z,99957.77
2018-12-17T06:44:18.581Z,99962.58
2018-12-17T06:47:21.835Z,99958.23
2018-12-17T06:50:25.079Z,99956.03
2018-12-17T06:53:28.283Z,99954.31
2018-12-17T06:56:31.524Z,99966.08
2018-12-17T06:59:34.762Z,99975.73
2018-12-17T07:02:38.027Z,99979.25
2018-12-17T07:05:41.237Z,99980.95
2018-12-17T07:08:44.461Z,99991.41
2018-12-17T07:11:47.698Z,99982.31
2018-12-17T07:14:50.930Z,99986.64
2018-12-17T07:17:54.153Z,99995.81
2018-12-17T07:20:57.364Z,99996.28
2018-12-17T07:24:00.875Z,100003.70
2018-12-17T07:27:04.250Z,100008.08
2018-12-17T07:30:08.109Z,100011.53
2018-12-17T07:33:11.480Z,100021.99
2018-12-17T07:36:14.816Z,100018.13
2018-12-17T07:39:18.317Z,100017.67
2018-12-17T07:42:21.549Z,100006.31
2018-12-17T07:45:24.776Z,100033.37
2018-12-17T07:48:28.024Z,100032.61
2018-12-17T07:51:31.264Z,100033.48
2018-12-17T07:54:34.489Z,100035.19
2018-12-17T07:57:37.691Z,100030.43
2018-12-17T08:00:42.069Z,100028.70
2018-12-17T08:03:45.358Z,100032.20
2018-12-17T08:06:48.573Z,100044.83
2018-12-17T08:09:51.792Z,100045.26
2018-12-17T08:12:55.037Z,100055.78
2018-12-17T08:15:58.281Z,100055.75
2018-12-17T08:19:01.518Z,100051.83
2018-12-17T08:22:04.752Z,100064.46
2018-12-17T08:25:09.779Z,100061.81
2018-12-17T08:28:13.216Z,100074.15
2018-12-17T08:31:16.541Z,100078.08
2018-12-17T08:34:19.800Z,100080.26
2018-12-17T08:37:23.028Z,100067.58
2018-12-17T08:40:26.244Z,100074.55
2018-12-17T08:43:29.471Z,100072.40
2018-12-17T08:46:32.859Z,100073.19
2018-12-17T08:49:36.213Z,100071.48
2018-12-17T08:52:39.460Z,100075.83
2018-12-17T08:55:42.687Z,100080.64
2018-12-17T08:58:47.042Z,100080.66
2018-12-17T09:01:50.445Z,100073.70
2018-12-17T09:04:54.513Z,100087.61
2018-12-17T09:07:57.784Z,100088.52
2018-12-17T09:11:02.486Z,100088.52
2018-12-17T09:14:06.325Z,100088.96
2018-12-17T09:17:09.589Z,100090.30
2018-12-17T09:20:12.849Z,100099.88
2018-12-17T09:23:16.229Z,100109.08
2018-12-17T09:26:19.524Z,100111.73
2018-12-17T09:29:22.760Z,100117.80
2018-12-17T09:32:26.129Z,100117.40
2018-12-17T09:35:29.433Z,100123.95
2018-12-17T09:38:32.788Z,100123.09
2018-12-17T09:41:36.012Z,100126.16
2018-12-17T09:44:39.254Z,100128.73
2018-12-17T09:47:42.473Z,100125.27
2018-12-17T09:50:45.852Z,100136.23
2018-12-17T09:53:49.060Z,100139.65
2018-12-17T09:56:52.287Z,100124.00
2018-12-17T09:59:55.477Z,100124.87
2018-12-17T10:02:59.442Z,100137.47
2018-12-17T10:06:02.703Z,100125.16
2018-12-17T10:09:06.978Z,100123.08
2018-12-17T10:12:12.200Z,100122.63
2018-12-17T10:15:15.409Z,100117.83
2018-12-17T10:18:18.620Z,100120.92
2018-12-17T10:21:21.818Z,100114.81
2018-12-17T10:24:25.031Z,100120.04
2018-12-17T10:27:28.252Z,100123.97
2018-12-17T10:30:32.749Z,100120.47
2018-12-17T10:33:36.156Z,100126.13
2018-12-17T10:36:39.514Z,100125.28
2018-12-17T10:39:42.731Z,100132.27
2018-12-17T10:42:45.949Z,100134.86
2018-12-17T10:45:49.143Z,100137.08
2018-12-17T10:48:52.355Z,100136.20
2018-12-17T10:51:56.680Z,100133.16
2018-12-17T10:54:59.917Z,100140.58
2018-12-17T10:58:03.123Z,100137.52
2018-12-17T11:01:12.273Z,100141.03
2018-12-17T11:07:39.132Z,100157.64
2018-12-17T11:10:42.363Z,100160.27
2018-12-17T11:13:45.592Z,100157.19
2018-12-17T11:16:48.812Z,100171.20
2018-12-17T11:19:52.027Z,100162.47
2018-12-17T11:22:55.233Z,100169.88
2018-12-17T11:25:58.467Z,100170.27
2018-12-17T11:29:01.688Z,100167.27
2018-12-17T11:32:11.491Z,100162.81
2018-12-17T11:35:10.759Z,100164.17
2018-12-17T11:38:15.097Z,100168.15
2018-12-17T11:41:19.627Z,100176.00
2018-12-17T11:44:22.998Z,100165.53
2018-12-17T11:51:11.291Z,100168.58
2018-12-17T11:54:14.621Z,100168.59
2018-12-17T11:58:24.305Z,100171.63
2018-12-17T12:01:29.619Z,100172.96
2018-12-17T12:04:32.865Z,100176.88
2018-12-17T12:07:36.323Z,100179.05
2018-12-17T12:10:39.584Z,100172.05
2018-12-17T12:13:42.857Z,100176.02
2018-12-17T12:16:46.089Z,100177.75
2018-12-17T12:20:04.378Z,100176.89
2018-12-17T12:23:07.990Z,100187.83
2018-12-17T12:26:11.478Z,100182.99
2018-12-17T12:29:14.878Z,100184.29
2018-12-17T12:32:18.487Z,100186.06
2018-12-17T12:35:21.873Z,100189.14
2018-12-17T12:38:25.275Z,100186.52
2018-12-17T12:41:29.663Z,100197.86
2018-12-17T12:44:33.102Z,100201.83
2018-12-17T12:47:36.502Z,100207.93
2018-12-17T12:50:39.897Z,100202.70
2018-12-17T12:53:46.255Z,100205.77
2018-12-17T12:56:49.634Z,100215.39
2018-12-17T12:59:53.030Z,100213.64
2018-12-17T13:02:56.406Z,100221.49
2018-12-17T13:05:59.746Z,100219.75
2018-12-17T13:09:04.495Z,100224.13
2018-12-17T13:12:09.890Z,100229.36
2018-12-17T13:15:14.221Z,100233.28
2018-12-17T13:18:17.498Z,100238.98
2018-12-17T13:21:21.571Z,100241.16
2018-12-17T13:24:24.827Z,100244.69
2018-12-17T13:27:28.073Z,100251.67
2018-12-17T13:30:31.330Z,100259.98
2018-12-17T13:33:35.930Z,100263.06
2018-12-17T13:36:39.313Z,100261.33
2018-12-17T13:39:42.729Z,100269.63
2018-12-17T13:42:46.144Z,100278.39
2018-12-17T13:45:49.542Z,100284.08
2018-12-17T13:48:53.207Z,100287.54
2018-12-17T13:52:02.298Z,100305.94
2018-12-17T13:55:05.955Z,100316.86
2018-12-17T13:58:09.522Z,100311.16
2018-12-17T14:01:12.898Z,100319.05
2018-12-17T14:04:16.277Z,100317.27
2018-12-17T14:07:20.034Z,100320.32
2018-12-17T14:10:29.101Z,100324.23
2018-12-17T14:13:32.934Z,100330.44
2018-12-17T14:16:41.970Z,100326.05
2018-12-17T15:41:10.337Z,100444.19
2018-12-17T15:44:13.750Z,100441.16
2018-12-17T15:47:17.177Z,100445.95
2018-12-17T15:50:20.602Z,100456.89
2018-12-17T15:53:24.053Z,100459.50
2018-12-17T15:56:27.483Z,100474.84
2018-12-17T15:59:31.406Z,100473.20
2018-12-17T16:02:34.859Z,100477.13
2018-12-17T16:05:38.329Z,100483.56
2018-12-17T16:08:41.765Z,100484.89
2018-12-17T16:11:45.344Z,100487.09
2018-12-17T16:14:50.034Z,100485.77
2018-12-17T16:18:04.255Z,100498.91
2018-12-17T16:21:09.358Z,100504.61
2018-12-17T16:24:13.957Z,100501.09
2018-12-17T16:27:19.420Z,100499.49
2018-12-17T16:30:24.177Z,100506.08
2018-12-17T16:33:29.982Z,100516.02
2018-12-17T16:36:34.944Z,100517.28
2018-12-17T16:39:40.247Z,100516.08
2018-12-17T16:42:44.082Z,100526.94
2018-12-17T16:45:48.124Z,100527.02
2018-12-17T16:48:51.753Z,100533.97
2018-12-17T16:51:55.542Z,100542.69
2018-12-17T16:54:59.132Z,100544.42
2018-12-17T16:58:02.798Z,100543.66
2018-12-17T17:01:06.371Z,100544.95
2018-12-17T17:04:11.008Z,100547.91
2018-12-17T17:07:14.655Z,100544.03
2018-12-17T17:10:18.467Z,100546.69
2018-12-17T17:13:24.558Z,100555.49
2018-12-17T17:16:29.176Z,100551.08
2018-12-17T17:19:33.411Z,100544.90
2018-12-17T17:22:38.074Z,100550.22
2018-12-17T17:25:41.625Z,100557.59
2018-12-17T17:28:45.993Z,100564.24
2018-12-17T17:31:49.986Z,100562.02
2018-12-17T17:34:54.063Z,100565.55
2018-12-17T17:37:59.159Z,100567.22
2018-12-17T17:41:03.347Z,100571.67
2018-12-17T17:44:10.936Z,100579.97
2018-12-17T17:47:14.673Z,100583.84
2018-12-17T17:50:18.348Z,100586.00
2018-12-17T17:53:23.281Z,100583.39
2018-12-17T17:56:29.874Z,100590.78
2018-12-17T17:59:33.656Z,100596.47
2018-12-17T18:02:41.602Z,100594.74
2018-12-17T18:05:45.298Z,100606.58
2018-12-17T18:08:48.953Z,100617.94
2018-12-17T18:11:52.657Z,100615.31
2018-12-17T18:14:56.476Z,100620.55
2018-12-17T18:18:00.627Z,100627.95
2018-12-17T18:21:04.284Z,100633.60
2018-12-17T18:24:08.165Z,100634.94
2018-12-17T18:27:12.023Z,100633.65
2018-12-17T18:30:15.899Z,100642.77
2018-12-17T18:33:19.766Z,100640.16
2018-12-17T18:36:23.667Z,100637.95
2018-12-17T18:39:27.483Z,100641.89
2018-12-17T18:42:31.293Z,100645.33
2018-12-17T18:45:35.783Z,100652.78
2018-12-17T18:48:40.444Z,100655.41
2018-12-17T18:51:45.002Z,100665.36
2018-12-17T18:54:49.754Z,100669.66
2018-12-17T18:57:54.497Z,100675.80
2018-12-17T19:00:59.169Z,100672.72
2018-12-17T19:04:03.799Z,100679.38
2018-12-17T19:07:08.517Z,100676.28
2018-12-17T19:10:13.349Z,100681.47
2018-12-17T19:13:18.274Z,100682.30
2018-12-17T19:16:22.131Z,100686.34
2018-12-17T19:19:25.845Z,100689.78
2018-12-17T19:22:29.703Z,100682.91
2018-12-17T19:25:33.701Z,100698.58
2018-12-17T19:28:37.551Z,100696.02
2018-12-17T19:31:41.413Z,100701.34
2018-12-17T19:34:45.247Z,100700.52
2018-12-17T19:37:49.065Z,100713.21
2018-12-17T19:40:52.854Z,100714.11
2018-12-17T19:43:56.686Z,100718.55
2018-12-17T19:47:01.138Z,100711.55
2018-12-17T19:50:06.579Z,100720.23
2018-12-17T19:53:10.391Z,100722.45
2018-12-17T19:56:20.827Z,100724.25
2018-12-17T19:59:24.712Z,100725.86
2018-12-17T20:02:28.610Z,100733.01
2018-12-17T20:05:32.484Z,100728.55
2018-12-17T20:08:36.399Z,100737.30
2018-12-17T20:11:40.320Z,100722.03
2018-12-17T20:14:44.216Z,100734.75
2018-12-17T20:17:48.018Z,100732.99
2018-12-17T20:20:51.920Z,100736.89
2018-12-17T20:23:55.686Z,100743.40
2018-12-17T20:26:59.601Z,100746.94
2018-12-17T20:30:04.401Z,100741.68
2018-12-17T20:33:09.615Z,100748.70
2018-12-17T20:36:14.608Z,100746.45
2018-12-17T20:39:18.493Z,100753.39
2018-12-17T20:42:22.264Z,100755.07
2018-12-17T20:45:25.865Z,100755.58
2018-12-17T20:48:29.417Z,100762.58
2018-12-17T20:51:33.048Z,100759.08
2018-12-17T20:54:36.765Z,100760.86
2018-12-17T20:57:40.791Z,100763.89
2018-12-17T21:00:45.755Z,100777.45
2018-12-17T21:03:49.666Z,100778.81
2018-12-17T21:06:54.159Z,100782.42
2018-12-17T21:09:57.941Z,100775.89
2018-12-17T21:13:02.228Z,100775.25
2018-12-17T21:16:06.658Z,100785.40
2018-12-17T21:19:10.335Z,100780.70
2018-12-17T21:22:13.849Z,100786.41
2018-12-17T21:25:17.347Z,100787.78
2018-12-17T21:28:20.842Z,100790.08
2018-12-17T21:31:25.586Z,100787.31
2018-12-17T21:34:29.479Z,100786.86
2018-12-17T21:37:33.022Z,100791.65
2018-12-17T21:40:36.695Z,100790.42
2018-12-17T21:43:40.332Z,100783.94
2018-12-17T21:46:44.870Z,100784.29
2018-12-17T21:49:48.314Z,100780.02
2018-12-17T21:52:51.891Z,100786.92
2018-12-17T21:55:55.578Z,100783.08
2018-12-17T21:58:59.282Z,100790.95
2018-12-17T22:02:06.313Z,100791.42
2018-12-17T22:05:10.138Z,100802.23
2018-12-17T22:08:13.830Z,100803.11
2018-12-17T22:11:17.472Z,100810.19
2018-12-17T22:14:21.482Z,100802.25
2018-12-17T22:17:25.143Z,100804.56
2018-12-17T22:20:28.976Z,100807.23
2018-12-17T22:23:36.167Z,100815.60
2018-12-17T22:26:39.894Z,100815.50
2018-12-17T22:29:43.677Z,100817.30
2018-12-17T22:32:47.714Z,100819.94
2018-12-17T22:35:51.349Z,100833.86
2018-12-17T22:38:54.971Z,100829.56
2018-12-17T22:42:00.756Z,100834.81
2018-12-17T22:45:05.331Z,100835.26
2018-12-17T22:48:09.701Z,100832.66
2018-12-17T22:51:13.616Z,100847.16
2018-12-17T22:54:17.353Z,100847.66
2018-12-17T22:57:30.825Z,100841.45
2018-12-17T23:00:35.741Z,100840.59
2018-12-17T23:03:42.488Z,100837.09
2018-12-17T23:06:56.458Z,100834.89
2018-12-17T23:10:20.765Z,100835.77
2018-12-17T23:13:43.910Z,100784.74
2018-12-17T23:17:04.919Z,100837.16
2018-12-17T23:20:19.064Z,100837.97
2018-12-17T23:23:29.052Z,100838.90
2018-12-17T23:26:41.997Z,100839.30
2018-12-17T23:29:46.833Z,100846.64
2018-12-17T23:32:55.585Z,100836.20
2018-12-17T23:36:03.493Z,100841.88
2018-12-17T23:39:16.630Z,100839.28
2018-12-17T23:42:26.673Z,100841.40
2018-12-17T23:45:36.120Z,100837.09
2018-12-17T23:48:41.103Z,100823.87
2018-12-17T23:51:46.016Z,100829.55
2018-12-17T23:54:50.824Z,100832.15
2018-12-17T23:57:55.593Z,100833.53
